createdAt,value
2022-11-29T00:01:13.623Z,15.55
2022-11-29T00:03:39.987Z,14.68
2022-11-29T00:06:09.049Z,13.98
2022-11-29T00:08:36.180Z,14.00
2022-11-29T00:11:04.257Z,15.20
2022-11-29T00:13:30.588Z,13.75
2022-11-29T00:16:02.036Z,14.38
2022-11-29T00:18:28.404Z,16.65
2022-11-29T00:20:54.819Z,16.88
2022-11-29T00:23:21.298Z,17.45
2022-11-29T00:25:47.686Z,16.42
2022-11-29T00:28:14.105Z,17.45
2022-11-29T00:30:40.572Z,19.33
2022-11-29T00:33:07.600Z,19.65
2022-11-29T00:35:34.034Z,19.75
2022-11-29T00:38:00.438Z,19.23
2022-11-29T00:40:26.875Z,18.10
2022-11-29T00:42:53.222Z,19.25
2022-11-29T00:45:19.636Z,18.70
2022-11-29T00:47:46.001Z,19.88
2022-11-29T00:50:12.431Z,19.83
2022-11-29T00:52:38.832Z,21.77
2022-11-29T00:55:05.720Z,20.55
2022-11-29T00:57:32.163Z,20.35
2022-11-29T00:59:58.557Z,19.75
2022-11-29T01:02:25.034Z,20.17
2022-11-29T01:04:51.464Z,20.25
2022-11-29T01:07:17.954Z,19.88
2022-11-29T01:09:44.396Z,21.20
2022-11-29T01:12:10.771Z,20.25
2022-11-29T01:14:37.210Z,19.80
2022-11-29T01:17:03.690Z,20.60
2022-11-29T01:19:30.139Z,21.47
2022-11-29T01:21:56.553Z,19.75
2022-11-29T01:24:22.972Z,20.27
2022-11-29T01:26:49.325Z,22.90
2022-11-29T01:29:15.818Z,21.30
2022-11-29T01:31:42.248Z,22.73
2022-11-29T01:34:08.731Z,22.95
2022-11-29T01:36:35.254Z,23.17
2022-11-29T01:39:04.189Z,24.13
2022-11-29T01:41:33.540Z,23.02
2022-11-29T01:44:01.477Z,23.60
2022-11-29T01:46:49.908Z,22.85
2022-11-29T01:49:24.343Z,22.52
2022-11-29T01:51:55.411Z,22.45
2022-11-29T01:54:22.669Z,22.48
2022-11-29T01:56:51.715Z,22.50
2022-11-29T01:59:21.864Z,22.52
2022-11-29T02:01:48.283Z,22.35
2022-11-29T02:04:15.231Z,23.27
2022-11-29T02:06:43.046Z,23.73
2022-11-29T02:09:20.778Z,26.67
2022-11-29T02:15:08.579Z,32.13
2022-11-29T02:18:02.664Z,25.85
2022-11-29T02:20:42.589Z,23.70
2022-11-29T02:23:50.902Z,26.65
2022-11-29T02:26:38.661Z,24.60
2022-11-29T02:29:24.149Z,23.83
2022-11-29T02:31:59.725Z,26.30
2022-11-29T02:34:45.240Z,27.60
2022-11-29T02:37:23.907Z,25.73
2022-11-29T02:40:38.644Z,25.75
2022-11-29T02:43:18.173Z,26.38
2022-11-29T02:46:09.242Z,24.90
2022-11-29T02:48:44.627Z,25.63
2022-11-29T02:51:25.801Z,25.08
2022-11-29T02:54:16.643Z,25.08
2022-11-29T02:56:52.080Z,22.80
2022-11-29T02:59:45.841Z,23.65
2022-11-29T03:02:28.536Z,26.55
2022-11-29T03:05:03.991Z,26.27
2022-11-29T03:08:02.863Z,25.52
2022-11-29T03:11:01.948Z,27.45
2022-11-29T03:13:45.716Z,26.73
2022-11-29T03:16:37.106Z,27.80
2022-11-29T03:19:13.045Z,28.67
2022-11-29T03:21:48.243Z,26.63
2022-11-29T03:24:36.727Z,26.33
2022-11-29T03:27:37.047Z,26.45
2022-11-29T03:30:08.161Z,26.90
2022-11-29T03:32:48.386Z,24.40
2022-11-29T03:35:25.403Z,23.75
2022-11-29T03:37:56.738Z,24.55
2022-11-29T03:41:12.971Z,22.65
2022-11-29T03:44:01.077Z,22.48
2022-11-29T03:46:47.161Z,22.10
2022-11-29T03:49:23.308Z,20.08
2022-11-29T03:52:08.083Z,19.83
2022-11-29T03:54:40.783Z,19.58
2022-11-29T03:57:07.617Z,18.73
2022-11-29T04:00:06.671Z,18.80
2022-11-29T04:03:20.614Z,17.40
2022-11-29T04:06:11.524Z,17.45
2022-11-29T04:08:49.873Z,16.17
2022-11-29T04:11:28.539Z,15.93
2022-11-29T04:14:07.268Z,14.98
2022-11-29T04:17:06.354Z,14.13
2022-11-29T04:19:32.716Z,13.68
2022-11-29T04:21:59.178Z,15.75
2022-11-29T04:24:50.077Z,16.50
2022-11-29T04:27:55.778Z,16.73
2022-11-29T04:30:27.430Z,15.77
2022-11-29T04:33:14.046Z,14.23
2022-11-29T04:36:18.378Z,16.58
2022-11-29T04:39:04.305Z,15.88
2022-11-29T04:42:02.748Z,16.58
2022-11-29T04:45:09.214Z,14.90
2022-11-29T04:47:44.114Z,16.70
2022-11-29T04:50:27.257Z,16.73
2022-11-29T04:53:11.150Z,16.83
2022-11-29T04:55:54.544Z,17.05
2022-11-29T04:58:44.064Z,18.67
2022-11-29T05:01:12.389Z,18.02
2022-11-29T05:03:46.903Z,18.45
2022-11-29T05:06:27.695Z,21.17
2022-11-29T05:09:15.428Z,18.70
2022-11-29T05:11:50.198Z,20.80
2022-11-29T05:14:54.821Z,19.75
2022-11-29T05:17:33.456Z,19.38
2022-11-29T05:20:03.568Z,18.17
2022-11-29T05:23:10.668Z,17.85
2022-11-29T05:25:57.319Z,16.25
2022-11-29T05:28:48.978Z,14.85
2022-11-29T05:31:26.407Z,18.33
2022-11-29T05:34:15.792Z,18.00
2022-11-29T05:36:47.736Z,16.13
2022-11-29T05:39:54.547Z,14.65
2022-11-29T05:42:24.179Z,15.82
2022-11-29T05:44:56.965Z,14.73
2022-11-29T05:47:39.750Z,14.68
2022-11-29T05:50:26.559Z,16.23
2022-11-29T05:53:27.388Z,16.58
2022-11-29T05:56:13.016Z,17.30
2022-11-29T05:59:00.176Z,17.25
2022-11-29T06:01:36.574Z,18.48
2022-11-29T06:04:21.409Z,16.08
2022-11-29T06:07:14.873Z,16.15
2022-11-29T06:09:52.288Z,16.73
2022-11-29T06:12:22.652Z,17.23
2022-11-29T06:15:11.717Z,17.67
2022-11-29T06:17:44.296Z,16.98
2022-11-29T06:20:35.273Z,17.45
2022-11-29T06:23:16.944Z,22.92
2022-11-29T06:25:49.844Z,19.30
2022-11-29T06:28:48.910Z,20.25
2022-11-29T06:31:23.846Z,19.52
2022-11-29T06:34:20.521Z,17.65
2022-11-29T06:37:05.605Z,17.45
2022-11-29T06:39:33.532Z,15.07
2022-11-29T06:42:00.010Z,16.90
2022-11-29T06:44:26.814Z,17.05
2022-11-29T06:47:08.198Z,15.82
2022-11-29T06:50:11.120Z,14.23
2022-11-29T06:52:58.377Z,15.02
2022-11-29T06:55:39.915Z,17.65
2022-11-29T06:58:36.229Z,17.77
2022-11-29T07:01:23.225Z,14.95
2022-11-29T07:04:46.379Z,14.00
2022-11-29T07:07:21.799Z,16.00
2022-11-29T07:09:51.451Z,16.30
2022-11-29T07:12:19.067Z,15.50
2022-11-29T07:14:45.969Z,16.35
2022-11-29T07:17:24.730Z,16.73
2022-11-29T07:19:56.827Z,17.33
2022-11-29T07:22:26.143Z,15.93
2022-11-29T07:25:11.408Z,15.13
2022-11-29T07:28:06.795Z,15.30
2022-11-29T07:30:36.099Z,15.27
2022-11-29T07:33:24.547Z,14.25
2022-11-29T07:36:28.791Z,15.35
2022-11-29T07:38:58.243Z,14.82
2022-11-29T07:41:42.293Z,15.05
2022-11-29T07:44:23.412Z,17.48
2022-11-29T07:46:49.877Z,17.42
2022-11-29T07:49:16.374Z,18.02
2022-11-29T07:51:43.343Z,18.50
2022-11-29T07:54:13.195Z,17.48
2022-11-29T07:56:39.611Z,16.58
2022-11-29T07:59:10.956Z,16.77
2022-11-29T08:01:37.523Z,16.50
2022-11-29T08:04:04.005Z,14.57
2022-11-29T08:06:30.366Z,15.30
2022-11-29T08:09:00.652Z,15.68
2022-11-29T08:11:27.382Z,16.55
2022-11-29T08:14:01.618Z,16.33
2022-11-29T08:16:28.186Z,17.00
2022-11-29T08:18:54.771Z,17.77
2022-11-29T08:21:21.339Z,16.25
2022-11-29T08:23:49.291Z,16.93
2022-11-29T08:26:17.292Z,16.88
2022-11-29T08:28:43.905Z,16.33
2022-11-29T08:31:12.934Z,16.80
2022-11-29T08:33:42.804Z,16.80
2022-11-29T08:36:14.735Z,15.25
2022-11-29T08:38:41.186Z,16.25
2022-11-29T08:41:12.969Z,15.82
2022-11-29T08:43:39.503Z,17.45
2022-11-29T08:46:06.186Z,17.42
2022-11-29T08:48:32.716Z,18.60
2022-11-29T08:50:59.202Z,17.10
2022-11-29T08:53:51.536Z,18.25
2022-11-29T08:59:06.260Z,16.67
2022-11-29T09:01:32.944Z,17.85
2022-11-29T09:03:59.553Z,17.25
2022-11-29T09:06:31.875Z,18.85
2022-11-29T09:08:59.439Z,18.17
2022-11-29T09:13:56.557Z,18.45
2022-11-29T09:16:26.332Z,18.40
2022-11-29T09:18:55.718Z,20.42
2022-11-29T09:21:24.625Z,19.83
2022-11-29T09:23:58.482Z,20.10
2022-11-29T09:26:33.854Z,18.50
2022-11-29T09:29:03.280Z,20.67
2022-11-29T09:31:31.233Z,20.58
2022-11-29T09:33:57.956Z,18.60
2022-11-29T09:36:28.380Z,20.23
2022-11-29T09:38:56.629Z,18.60
2022-11-29T09:42:12.432Z,21.90
2022-11-29T09:44:50.948Z,17.63
2022-11-29T09:47:56.397Z,16.98
2022-11-29T09:50:37.495Z,18.02
2022-11-29T09:53:21.801Z,18.23
2022-11-29T09:56:22.003Z,17.50
2022-11-29T09:58:54.314Z,18.83
2022-11-29T10:01:26.612Z,19.77
2022-11-29T10:03:57.100Z,17.85
2022-11-29T10:06:23.428Z,18.27
2022-11-29T10:08:59.374Z,16.40
2022-11-29T10:11:35.973Z,17.95
2022-11-29T10:14:20.271Z,18.23
2022-11-29T10:16:52.407Z,15.95
2022-11-29T10:19:32.604Z,18.17
2022-11-29T10:22:04.990Z,16.85
2022-11-29T10:24:33.300Z,17.13
2022-11-29T10:26:59.979Z,15.20
2022-11-29T10:29:26.706Z,18.10
2022-11-29T10:31:56.580Z,14.60
2022-11-29T10:34:25.473Z,16.15
2022-11-29T10:36:59.592Z,17.65
2022-11-29T10:39:37.098Z,16.23
2022-11-29T10:42:06.589Z,18.88
2022-11-29T10:44:33.701Z,15.60
2022-11-29T10:47:09.307Z,16.33
2022-11-29T10:49:37.905Z,13.97
2022-11-29T10:52:05.608Z,14.45
2022-11-29T10:54:39.493Z,14.20
2022-11-29T10:57:14.488Z,13.65
2022-11-29T10:59:41.108Z,14.80
2022-11-29T11:02:19.181Z,14.40
2022-11-29T11:07:28.562Z,13.20
2022-11-29T11:09:57.164Z,15.65
2022-11-29T11:12:30.046Z,14.68
2022-11-29T11:15:28.151Z,15.13
2022-11-29T11:18:00.557Z,14.38
2022-11-29T11:20:32.523Z,14.10
2022-11-29T11:23:24.640Z,14.75
2022-11-29T11:26:04.731Z,14.00
2022-11-29T11:28:52.168Z,15.20
2022-11-29T11:31:28.600Z,16.27
2022-11-29T11:33:55.328Z,14.52
2022-11-29T11:36:27.388Z,13.95
2022-11-29T11:39:11.590Z,14.15
2022-11-29T11:42:00.317Z,14.65
2022-11-29T11:47:27.186Z,12.30
2022-11-29T11:50:03.401Z,12.38
2022-11-29T11:52:42.880Z,12.27
2022-11-29T11:55:21.520Z,13.55
2022-11-29T11:58:14.291Z,13.02
2022-11-29T12:01:03.567Z,14.50
2022-11-29T12:03:45.964Z,13.05
2022-11-29T12:06:37.327Z,13.05
2022-11-29T12:09:26.132Z,12.80
2022-11-29T12:14:35.945Z,11.73
2022-11-29T12:17:09.513Z,13.15
2022-11-29T12:19:48.000Z,12.63
2022-11-29T12:22:22.284Z,13.43
2022-11-29T12:24:57.359Z,13.32
2022-11-29T12:27:23.830Z,12.05
2022-11-29T12:29:50.888Z,13.07
2022-11-29T12:32:36.207Z,12.38
2022-11-29T12:35:19.012Z,13.10
2022-11-29T12:38:23.661Z,12.77
2022-11-29T12:41:16.670Z,14.23
2022-11-29T12:43:48.976Z,12.90
2022-11-29T12:46:25.916Z,13.48
2022-11-29T12:49:04.248Z,13.27
2022-11-29T12:51:56.735Z,12.23
2022-11-29T12:54:48.901Z,13.63
2022-11-29T12:57:17.926Z,14.60
2022-11-29T13:00:03.628Z,14.30
2022-11-29T13:03:18.421Z,12.85
2022-11-29T13:06:03.960Z,13.52
2022-11-29T13:08:49.350Z,14.10
2022-11-29T13:11:37.622Z,12.93
2022-11-29T13:14:43.104Z,12.25
2022-11-29T13:17:27.884Z,14.23
2022-11-29T13:20:01.207Z,14.00
2022-11-29T13:22:52.369Z,13.00
2022-11-29T13:25:25.847Z,13.82
2022-11-29T13:28:29.184Z,15.85
2022-11-29T13:31:01.736Z,14.25
2022-11-29T13:33:45.853Z,20.27
2022-11-29T13:36:23.143Z,14.13
2022-11-29T13:39:30.135Z,13.50
2022-11-29T13:42:26.225Z,13.02
2022-11-29T13:44:58.029Z,14.85
2022-11-29T13:47:24.611Z,13.52
2022-11-29T13:49:57.255Z,13.37
2022-11-29T13:52:40.627Z,15.02
2022-11-29T13:55:12.949Z,14.05
2022-11-29T14:00:44.434Z,13.55
2022-11-29T14:03:23.008Z,14.48
2022-11-29T14:06:03.331Z,13.93
2022-11-29T14:09:17.682Z,12.32
2022-11-29T14:11:50.423Z,12.48
2022-11-29T14:16:43.087Z,14.13
2022-11-29T15:10:13.488Z,16.20
2022-11-29T15:12:40.311Z,15.52
2022-11-29T15:15:28.418Z,14.80
2022-11-29T15:18:10.297Z,14.95
2022-11-29T15:21:14.139Z,14.43
2022-11-29T15:23:42.564Z,14.63
2022-11-29T15:26:18.504Z,14.88
2022-11-29T15:28:45.502Z,15.05
2022-11-29T15:31:17.930Z,15.10
2022-11-29T15:33:47.364Z,18.42
2022-11-29T15:36:21.201Z,16.52
2022-11-29T15:38:57.343Z,17.15
2022-11-29T15:41:28.085Z,16.65
2022-11-29T15:43:59.740Z,15.95
2022-11-29T15:46:28.358Z,15.77
2022-11-29T15:48:55.700Z,16.13
2022-11-29T15:51:30.118Z,16.10
2022-11-29T15:54:12.765Z,15.90
2022-11-29T15:56:42.526Z,18.10
2022-11-29T15:59:17.601Z,17.30
2022-11-29T16:01:47.077Z,17.27
2022-11-29T16:04:19.186Z,16.77
2022-11-29T16:06:47.374Z,15.82
2022-11-29T16:09:17.995Z,17.33
2022-11-29T16:11:46.864Z,15.73
2022-11-29T16:14:22.143Z,15.70
2022-11-29T16:16:52.576Z,16.42
2022-11-29T16:19:28.240Z,16.95
2022-11-29T16:22:12.876Z,25.60
2022-11-29T16:24:48.252Z,34.15
2022-11-29T16:27:14.990Z,17.30
2022-11-29T16:29:46.086Z,15.63
2022-11-29T16:32:44.133Z,16.30
2022-11-29T16:35:19.008Z,16.13
2022-11-29T16:37:46.448Z,16.52
2022-11-29T16:43:19.458Z,16.83
2022-11-29T16:45:46.772Z,17.10
2022-11-29T16:48:22.407Z,17.30
2022-11-29T16:51:43.894Z,15.65
2022-11-29T16:54:21.111Z,17.58
2022-11-29T16:56:48.070Z,31.30
2022-11-29T16:59:20.780Z,21.65
2022-11-29T17:01:53.905Z,19.05
2022-11-29T17:04:23.393Z,17.50
2022-11-29T17:06:51.713Z,35.28
2022-11-29T17:09:27.685Z,31.50
2022-11-29T17:11:55.532Z,28.15
2022-11-29T17:14:22.296Z,20.90
2022-11-29T17:16:49.733Z,25.05
2022-11-29T17:19:16.435Z,22.23
2022-11-29T17:21:42.895Z,18.70
2022-11-29T17:24:14.461Z,17.08
2022-11-29T17:26:42.329Z,18.35
2022-11-29T17:29:16.229Z,17.55
2022-11-29T17:31:43.986Z,17.85
2022-11-29T17:34:10.996Z,17.85
2022-11-29T17:36:37.756Z,18.25
2022-11-29T17:39:05.295Z,18.67
2022-11-29T17:43:59.744Z,16.70
2022-11-29T17:46:28.534Z,18.20
2022-11-29T17:48:55.893Z,18.77
2022-11-29T17:54:10.733Z,20.33
2022-11-29T17:56:37.399Z,21.60
2022-11-29T17:59:04.824Z,21.27
2022-11-29T18:01:33.345Z,22.08
2022-11-29T18:04:01.391Z,23.25
2022-11-29T18:06:30.452Z,20.80
2022-11-29T18:08:59.179Z,24.50
2022-11-29T18:11:41.645Z,23.35
2022-11-29T18:14:13.222Z,22.02
2022-11-29T18:16:39.890Z,21.52
2022-11-29T18:19:14.859Z,22.25
2022-11-29T18:21:41.383Z,22.80
2022-11-29T18:24:08.338Z,24.33
2022-11-29T18:26:36.229Z,23.52
2022-11-29T18:29:02.731Z,21.00
2022-11-29T18:31:31.658Z,22.83
2022-11-29T18:34:02.170Z,23.98
2022-11-29T18:36:32.000Z,22.00
2022-11-29T18:39:04.326Z,24.08
2022-11-29T18:41:32.031Z,22.75
2022-11-29T18:44:10.034Z,21.38
2022-11-29T18:46:39.018Z,22.15
2022-11-29T18:49:10.631Z,23.98
2022-11-29T18:51:38.960Z,22.85
2022-11-29T18:54:06.491Z,26.55
2022-11-29T18:59:07.160Z,24.87
2022-11-29T19:01:35.501Z,26.20
2022-11-29T19:04:02.091Z,28.13
2022-11-29T19:06:38.591Z,27.35
2022-11-29T19:09:06.800Z,27.85
2022-11-29T19:11:34.296Z,28.70
2022-11-29T19:18:58.549Z,30.55
2022-11-29T19:21:26.892Z,27.67
2022-11-29T19:23:58.375Z,25.05
2022-11-29T19:26:27.443Z,28.65
2022-11-29T19:28:54.594Z,29.23
2022-11-29T19:31:27.067Z,30.15
2022-11-29T19:33:54.653Z,31.83
2022-11-29T19:38:53.414Z,33.03
2022-11-29T19:41:26.076Z,31.70
2022-11-29T19:43:52.673Z,28.52
2022-11-29T19:46:21.598Z,30.90
2022-11-29T19:48:48.805Z,28.25
2022-11-29T19:51:18.906Z,29.50
2022-11-29T19:53:46.406Z,30.25
2022-11-29T19:58:40.820Z,42.00
2022-11-29T20:01:09.999Z,35.65
2022-11-29T20:03:36.839Z,26.60
2022-11-29T20:06:03.739Z,29.50
2022-11-29T20:08:30.806Z,25.30
2022-11-29T20:11:05.439Z,27.13
2022-11-29T20:13:31.985Z,22.92
2022-11-29T20:16:05.810Z,26.47
2022-11-29T20:18:33.296Z,20.25
2022-11-29T20:23:30.860Z,19.38
2022-11-29T20:25:57.434Z,21.55
2022-11-29T20:28:23.960Z,18.20
2022-11-29T20:30:50.591Z,18.37
2022-11-29T20:33:24.655Z,18.63
2022-11-29T20:36:00.061Z,18.02
2022-11-29T20:38:44.127Z,18.27
2022-11-29T20:41:20.752Z,18.42
2022-11-29T20:43:59.603Z,18.75
2022-11-29T20:46:26.664Z,17.55
2022-11-29T20:48:53.828Z,17.85
2022-11-29T20:51:32.491Z,19.52
2022-11-29T20:53:58.961Z,17.83
2022-11-29T20:56:25.472Z,18.48
2022-11-29T20:58:51.935Z,16.92
2022-11-29T21:01:18.334Z,30.42
2022-11-29T21:03:44.841Z,21.63
2022-11-29T21:06:11.315Z,29.37
2022-11-29T21:08:37.800Z,20.70
2022-11-29T21:11:06.927Z,29.35
2022-11-29T21:13:34.036Z,22.33
2022-11-29T21:16:01.580Z,23.10
2022-11-29T21:18:29.620Z,20.50
2022-11-29T21:21:16.271Z,18.65
2022-11-29T21:23:55.837Z,17.75
2022-11-29T21:26:41.953Z,16.55
2022-11-29T21:29:17.392Z,19.23
2022-11-29T21:31:44.536Z,17.67
2022-11-29T21:34:11.314Z,16.25
2022-11-29T21:36:38.371Z,18.88
2022-11-29T21:39:07.232Z,17.95
2022-11-29T21:41:34.555Z,17.92
2022-11-29T21:44:08.711Z,16.88
2022-11-29T21:46:35.386Z,18.45
2022-11-29T21:49:01.882Z,18.07
2022-11-29T21:51:28.317Z,18.85
2022-11-29T21:53:54.660Z,17.98
2022-11-29T21:56:21.090Z,19.00
2022-11-29T21:58:47.533Z,19.25
2022-11-29T22:01:16.882Z,20.05
2022-11-29T22:03:44.037Z,18.45
2022-11-29T22:06:16.512Z,17.70
2022-11-29T22:08:42.948Z,17.90
2022-11-29T22:11:15.911Z,18.42
2022-11-29T22:14:02.610Z,17.88
2022-11-29T22:16:30.146Z,17.73
2022-11-29T22:18:56.631Z,17.77
2022-11-29T22:21:22.976Z,17.42
2022-11-29T22:23:49.447Z,17.92
2022-11-29T22:26:15.804Z,17.00
2022-11-29T22:28:42.161Z,18.15
2022-11-29T22:31:11.184Z,18.73
2022-11-29T22:33:38.167Z,19.08
2022-11-29T22:36:10.524Z,18.08
2022-11-29T22:38:37.624Z,17.58
2022-11-29T22:41:09.453Z,17.70
2022-11-29T22:43:37.253Z,19.35
2022-11-29T22:46:12.513Z,17.98
2022-11-29T22:48:39.912Z,17.30
2022-11-29T22:51:08.784Z,18.60
2022-11-29T22:53:36.894Z,18.23
2022-11-29T22:56:05.768Z,18.63
2022-11-29T22:58:32.939Z,17.67
2022-11-29T23:01:11.295Z,17.58
2022-11-29T23:03:59.453Z,18.65
2022-11-29T23:06:28.330Z,17.08
2022-11-29T23:08:58.059Z,18.73
2022-11-29T23:11:29.138Z,19.38
2022-11-29T23:13:55.767Z,17.42
2022-11-29T23:16:25.011Z,18.37
2022-11-29T23:18:51.919Z,17.15
2022-11-29T23:21:21.235Z,19.05
2022-11-29T23:23:52.966Z,20.25
2022-11-29T23:26:27.474Z,17.95
2022-11-29T23:28:54.647Z,18.95
2022-11-29T23:31:22.245Z,20.48
2022-11-29T23:33:49.116Z,18.65
2022-11-29T23:36:16.577Z,18.23
2022-11-29T23:41:11.643Z,19.30
2022-11-29T23:43:40.448Z,20.65
2022-11-29T23:46:13.911Z,18.23
2022-11-29T23:48:40.473Z,18.15
2022-11-29T23:51:07.087Z,19.30
2022-11-29T23:53:33.624Z,18.90
2022-11-29T23:56:01.877Z,19.55
2022-11-29T23:58:29.903Z,18.83
